Time;durP1;ratioP1;P1;durP2;ratioP2;P2;SDS_P1;SDS_P2;PMS_P1;PMS_P2;Temp;Humidity;BMP_temperature;BMP_pressure;BME280_temperature;BME280_humidity;BME280_pressure;Samples;Min_cycle;Max_cycle;Signal;HPM_P1;HPM_P2
2020/12/07 00:01:44;;;;;;;60.53;27.67;;;;;;;;;;6205786;28;20387;-70
2020/12/07 00:04:46;;;;;;;58.60;29.42;;;;;;;;;;6211900;28;20221;-70
2020/12/07 00:07:48;;;;;;;62.08;28.38;;;;;;;;;;6235841;28;20132;-69
2020/12/07 00:10:49;;;;;;;76.97;30.92;;;;;;;;;;6234211;28;20037;-70
2020/12/07 00:13:50;;;;;;;68.15;29.88;;;;;;;;;;6234961;28;20113;-70
2020/12/07 00:16:51;;;;;;;61.75;28.65;;;;;;;;;;6211582;28;20153;-69
2020/12/07 00:19:54;;;;;;;60.13;27.50;;;;;;;;;;6206958;28;20397;-70
2020/12/07 00:22:56;;;;;;;63.33;28.85;;;;;;;;;;6221335;28;20088;-70
2020/12/07 00:25:57;;;;;;;61.10;28.67;;;;;;;;;;6207010;28;20050;-70
2020/12/07 00:28:58;;;;;;;60.10;28.13;;;;;;;;;;6226318;28;20158;-69
2020/12/07 00:32:00;;;;;;;55.17;27.20;;;;;;;;;;6207451;28;20541;-69
2020/12/07 00:35:02;;;;;;;56.80;25.38;;;;;;;;;;6233189;28;20071;-70
2020/12/07 00:38:03;;;;;;;56.70;24.40;;;;;;;;;;6239569;28;20053;-69
2020/12/07 00:41:04;;;;;;;49.08;23.42;;;;;;;;;;6236003;28;20067;-69
2020/12/07 00:44:05;;;;;;;57.55;23.83;;;;;;;;;;6232773;28;20389;-70
2020/12/07 00:47:06;;;;;;;89.13;43.03;;;;;;;;;;6231435;28;20045;-71
2020/12/07 00:50:08;;;;;;;67.82;30.17;;;;;;;;;;6235581;28;20037;-70
2020/12/07 00:53:09;;;;;;;69.15;32.63;;;;;;;;;;6210188;28;20181;-69
2020/12/07 00:56:12;;;;;;;122.60;47.50;;;;;;;;;;6222371;28;20045;-68
2020/12/07 00:59:13;;;;;;;90.32;31.25;;;;;;;;;;6226648;28;20592;-69
2020/12/07 01:02:14;;;;;;;73.47;27.27;;;;;;;;;;6212043;28;20071;-69
2020/12/07 01:05:16;;;;;;;74.30;27.60;;;;;;;;;;6231896;28;20061;-72
2020/12/07 01:08:17;;;;;;;65.03;28.05;;;;;;;;;;6220916;28;20188;-70
2020/12/07 01:11:18;;;;;;;71.28;26.42;;;;;;;;;;6209755;28;20141;-69
2020/12/07 01:14:19;;;;;;;53.85;25.23;;;;;;;;;;6214958;28;20137;-69
2020/12/07 01:17:20;;;;;;;47.40;23.38;;;;;;;;;;6217316;28;20050;-69
2020/12/07 01:20:22;;;;;;;42.33;22.05;;;;;;;;;;6212147;28;20103;-71
2020/12/07 01:23:23;;;;;;;41.22;21.67;;;;;;;;;;6214557;28;20092;-69
2020/12/07 01:26:25;;;;;;;37.90;21.58;;;;;;;;;;6212327;28;20135;-69
2020/12/07 01:29:26;;;;;;;38.50;20.02;;;;;;;;;;6208637;28;20053;-68
2020/12/07 01:32:27;;;;;;;32.97;19.23;;;;;;;;;;6215394;28;20129;-69
2020/12/07 01:35:28;;;;;;;33.90;19.65;;;;;;;;;;6206285;28;20119;-67
2020/12/07 01:38:30;;;;;;;34.10;19.48;;;;;;;;;;6211421;28;20050;-69
2020/12/07 01:41:31;;;;;;;31.80;18.77;;;;;;;;;;6210278;28;20149;-69
2020/12/07 01:44:32;;;;;;;36.33;19.23;;;;;;;;;;6210692;28;20037;-72
2020/12/07 01:47:33;;;;;;;34.30;19.80;;;;;;;;;;6213763;28;20107;-69
2020/12/07 01:50:35;;;;;;;37.88;19.88;;;;;;;;;;6215247;28;20069;-69
2020/12/07 01:53:36;;;;;;;36.85;19.90;;;;;;;;;;6215284;28;20972;-69
2020/12/07 01:56:38;;;;;;;40.67;21.25;;;;;;;;;;6213651;28;20474;-69
2020/12/07 01:59:39;;;;;;;32.88;19.98;;;;;;;;;;6230228;28;20062;-71
2020/12/07 02:02:40;;;;;;;33.75;18.40;;;;;;;;;;6215210;28;20049;-68
2020/12/07 02:05:42;;;;;;;31.38;18.13;;;;;;;;;;6215386;28;20042;-67
2020/12/07 02:08:43;;;;;;;33.75;18.33;;;;;;;;;;6212939;28;20184;-68
2020/12/07 02:11:44;;;;;;;32.60;18.95;;;;;;;;;;6227435;28;20049;-71
2020/12/07 02:14:45;;;;;;;37.15;19.73;;;;;;;;;;6212996;28;20033;-69
2020/12/07 02:17:46;;;;;;;38.00;19.65;;;;;;;;;;6235083;28;20175;-68
2020/12/07 02:20:49;;;;;;;39.55;17.98;;;;;;;;;;6232635;28;20096;-69
2020/12/07 02:23:50;;;;;;;33.88;19.25;;;;;;;;;;6217519;28;20046;-69
2020/12/07 02:26:51;;;;;;;30.50;18.67;;;;;;;;;;6241968;28;20041;-69
2020/12/07 02:29:52;;;;;;;31.17;19.15;;;;;;;;;;6219057;28;20196;-71
2020/12/07 02:32:53;;;;;;;28.25;17.15;;;;;;;;;;6212312;28;20474;-72
2020/12/07 02:35:55;;;;;;;29.95;16.98;;;;;;;;;;6215850;28;21043;-68
2020/12/07 02:38:56;;;;;;;31.08;17.90;;;;;;;;;;6231959;28;20078;-68
2020/12/07 02:41:57;;;;;;;31.80;19.08;;;;;;;;;;6225326;28;20444;-68
2020/12/07 02:44:58;;;;;;;29.58;17.92;;;;;;;;;;6202959;28;20053;-69
2020/12/07 02:47:59;;;;;;;26.30;16.77;;;;;;;;;;6215622;28;20041;-70
2020/12/07 02:51:01;;;;;;;27.95;17.70;;;;;;;;;;6224758;28;20050;-72
2020/12/07 02:54:02;;;;;;;27.33;16.40;;;;;;;;;;6213525;28;20454;-69
2020/12/07 02:57:03;;;;;;;28.17;18.63;;;;;;;;;;6213331;28;20134;-69
2020/12/07 03:00:06;;;;;;;27.85;17.00;;;;;;;;;;6203905;28;20448;-71
2020/12/07 03:03:07;;;;;;;30.63;18.45;;;;;;;;;;6240400;28;20399;-69
2020/12/07 03:06:08;;;;;;;28.77;17.40;;;;;;;;;;6221261;28;20042;-67
2020/12/07 03:09:09;;;;;;;28.65;18.25;;;;;;;;;;6212256;28;20041;-70
2020/12/07 03:12:12;;;;;;;34.03;19.05;;;;;;;;;;6212910;28;20233;-68
2020/12/07 03:15:13;;;;;;;30.77;18.33;;;;;;;;;;6208931;28;20465;-68
2020/12/07 03:18:14;;;;;;;29.17;18.35;;;;;;;;;;6213597;28;20116;-70
2020/12/07 03:21:17;;;;;;;33.70;19.75;;;;;;;;;;6214220;28;20053;-74
2020/12/07 03:24:18;;;;;;;29.63;18.17;;;;;;;;;;6210746;28;20173;-69
2020/12/07 03:27:19;;;;;;;31.15;18.63;;;;;;;;;;6214864;28;20045;-71
2020/12/07 03:30:20;;;;;;;40.20;19.88;;;;;;;;;;6218971;28;20076;-68
2020/12/07 03:33:21;;;;;;;30.00;18.42;;;;;;;;;;6237590;28;20260;-69
2020/12/07 03:36:23;;;;;;;29.38;17.48;;;;;;;;;;6236196;28;20793;-70
2020/12/07 03:39:25;;;;;;;29.55;16.92;;;;;;;;;;6235728;28;20175;-70
2020/12/07 03:42:26;;;;;;;25.50;16.67;;;;;;;;;;6217400;28;20072;-70
2020/12/07 03:45:27;;;;;;;27.80;17.33;;;;;;;;;;6238510;28;20087;-72
2020/12/07 03:48:28;;;;;;;28.65;17.20;;;;;;;;;;6234837;28;20586;-71
2020/12/07 03:51:30;;;;;;;26.75;16.63;;;;;;;;;;6238356;28;20124;-73
2020/12/07 03:54:31;;;;;;;22.17;15.48;;;;;;;;;;6237517;28;20106;-70
2020/12/07 03:57:32;;;;;;;23.80;15.70;;;;;;;;;;6234946;28;20122;-70
2020/12/07 04:00:33;;;;;;;22.45;15.20;;;;;;;;;;6238378;28;20095;-71
2020/12/07 04:03:35;;;;;;;24.70;16.23;;;;;;;;;;6237800;28;20050;-70
2020/12/07 04:06:40;;;;;;;22.83;15.07;;;;;;;;;;6238539;28;20599;-71
2020/12/07 04:09:41;;;;;;;21.25;14.15;;;;;;;;;;6237069;28;20080;-71
2020/12/07 04:12:42;;;;;;;22.88;15.45;;;;;;;;;;6238445;28;20128;-75
2020/12/07 04:15:43;;;;;;;21.42;15.25;;;;;;;;;;6240818;28;20128;-70
2020/12/07 04:18:44;;;;;;;21.98;15.10;;;;;;;;;;6220790;28;20049;-70
2020/12/07 04:21:46;;;;;;;21.23;15.15;;;;;;;;;;6238541;28;20049;-70
2020/12/07 04:24:47;;;;;;;21.13;14.00;;;;;;;;;;6238075;28;20507;-70
2020/12/07 04:27:48;;;;;;;17.70;12.82;;;;;;;;;;6238871;28;20041;-72
2020/12/07 04:30:49;;;;;;;20.50;14.45;;;;;;;;;;6234366;28;20118;-71
2020/12/07 04:33:50;;;;;;;20.65;14.27;;;;;;;;;;6234162;28;20406;-67
2020/12/07 04:36:55;;;;;;;17.98;13.73;;;;;;;;;;6241494;28;20046;-71
2020/12/07 04:39:55;;;;;;;;;;;;;;;;;;6245180;28;20041;-72
2020/12/07 04:42:57;;;;;;;21.55;14.07;;;;;;;;;;6242776;28;19921;-71
2020/12/07 04:45:58;;;;;;;19.77;14.45;;;;;;;;;;6235296;28;20816;-68
2020/12/07 04:49:00;;;;;;;19.55;14.40;;;;;;;;;;6229777;28;20176;-70
2020/12/07 04:52:02;;;;;;;17.98;13.50;;;;;;;;;;6241289;28;20099;-70
2020/12/07 04:55:04;;;;;;;20.20;13.82;;;;;;;;;;6236197;28;20072;-70
2020/12/07 04:58:07;;;;;;;19.52;14.35;;;;;;;;;;6239310;28;20068;-70
2020/12/07 05:01:08;;;;;;;21.17;14.98;;;;;;;;;;6225058;28;20195;-69
2020/12/07 05:04:09;;;;;;;20.30;14.80;;;;;;;;;;6226125;28;20428;-70
2020/12/07 05:07:11;;;;;;;22.67;15.07;;;;;;;;;;6218954;28;20125;-70
2020/12/07 05:10:15;;;;;;;22.77;15.20;;;;;;;;;;6219494;28;20461;-70
2020/12/07 05:13:20;;;;;;;23.60;15.70;;;;;;;;;;6212254;28;20184;-71
2020/12/07 05:16:24;;;;;;;23.65;16.30;;;;;;;;;;6215662;28;20050;-70
2020/12/07 05:19:25;;;;;;;22.60;15.35;;;;;;;;;;6218410;28;20140;-70
2020/12/07 05:22:29;;;;;;;23.48;14.50;;;;;;;;;;6242045;28;20049;-70
2020/12/07 05:25:30;;;;;;;21.50;14.93;;;;;;;;;;6214699;28;20042;-70
2020/12/07 05:28:35;;;;;;;22.23;15.55;;;;;;;;;;6212167;28;20099;-70
2020/12/07 05:31:36;;;;;;;20.90;14.80;;;;;;;;;;6212054;28;20054;-69
2020/12/07 05:34:38;;;;;;;20.98;15.88;;;;;;;;;;6233947;28;20451;-70
2020/12/07 05:37:40;;;;;;;23.48;15.18;;;;;;;;;;6239569;28;20128;-69
2020/12/07 05:40:41;;;;;;;23.58;15.43;;;;;;;;;;6219929;28;20452;-70
2020/12/07 05:43:43;;;;;;;26.30;16.15;;;;;;;;;;6210769;28;20046;-70
2020/12/07 05:46:46;;;;;;;25.55;16.05;;;;;;;;;;6230875;28;20072;-70
2020/12/07 05:49:49;;;;;;;22.95;16.23;;;;;;;;;;6218248;28;20054;-71
2020/12/07 05:52:53;;;;;;;25.30;16.92;;;;;;;;;;6234628;28;20152;-70
2020/12/07 05:55:55;;;;;;;24.30;16.80;;;;;;;;;;6237704;28;20114;-70
2020/12/07 05:59:01;;;;;;;25.52;16.83;;;;;;;;;;6239885;28;20128;-71
2020/12/07 06:02:03;;;;;;;25.38;16.77;;;;;;;;;;6221429;28;20148;-72
2020/12/07 06:05:04;;;;;;;27.25;16.85;;;;;;;;;;6234035;28;20344;-70
2020/12/07 06:08:09;;;;;;;26.58;17.83;;;;;;;;;;6215648;28;20682;-71
2020/12/07 06:11:12;;;;;;;25.13;18.77;;;;;;;;;;6211670;28;20038;-70
2020/12/07 06:14:13;;;;;;;26.73;18.30;;;;;;;;;;6231563;28;20064;-70
2020/12/07 06:17:23;;;;;;;25.65;18.40;;;;;;;;;;6224270;28;20099;-71
2020/12/07 06:20:31;;;;;;;31.85;20.60;;;;;;;;;;6237557;28;20145;-71
2020/12/07 06:23:35;;;;;;;27.88;19.55;;;;;;;;;;6237272;28;20060;-72
2020/12/07 06:26:36;;;;;;;29.05;19.63;;;;;;;;;;6234761;28;20049;-73
2020/12/07 06:29:37;;;;;;;27.05;18.85;;;;;;;;;;6236348;28;20077;-70
2020/12/07 06:32:46;;;;;;;32.08;22.08;;;;;;;;;;6214256;28;20555;-70
2020/12/07 06:35:47;;;;;;;31.33;21.55;;;;;;;;;;6210656;28;20755;-70
2020/12/07 06:38:49;;;;;;;29.45;21.60;;;;;;;;;;6215973;28;20171;-70
2020/12/07 06:41:50;;;;;;;31.50;21.15;;;;;;;;;;6234068;28;20094;-70
2020/12/07 06:44:51;;;;;;;28.63;21.27;;;;;;;;;;6236028;28;20108;-71
2020/12/07 06:47:52;;;;;;;30.77;21.35;;;;;;;;;;6236604;28;20511;-70
2020/12/07 06:50:56;;;;;;;31.30;22.55;;;;;;;;;;6254095;28;20676;-70
2020/12/07 06:53:58;;;;;;;32.33;22.50;;;;;;;;;;6239421;28;20057;-71
2020/12/07 06:57:20;;;;;;;36.33;24.60;;;;;;;;;;6208185;28;20616;-72
2020/12/07 07:00:22;;;;;;;40.03;27.15;;;;;;;;;;6224575;28;20057;-72
2020/12/07 07:03:23;;;;;;;38.63;26.15;;;;;;;;;;6226909;28;20045;-69
2020/12/07 07:06:25;;;;;;;35.75;25.20;;;;;;;;;;6233947;28;20053;-69
2020/12/07 07:09:26;;;;;;;41.33;27.27;;;;;;;;;;6236641;28;20184;-69
2020/12/07 07:12:28;;;;;;;39.92;26.27;;;;;;;;;;6232599;28;20140;-69
2020/12/07 07:15:29;;;;;;;39.38;27.38;;;;;;;;;;6237158;28;20045;-71
2020/12/07 07:18:30;;;;;;;39.65;27.58;;;;;;;;;;6223000;28;20436;-69
2020/12/07 07:21:31;;;;;;;40.17;26.25;;;;;;;;;;6213501;28;20046;-70
2020/12/07 07:24:40;;;;;;;42.65;28.50;;;;;;;;;;5885903;28;10000284;-72
2020/12/07 07:27:59;;;;;;;37.92;26.67;;;;;;;;;;6220456;28;20080;-71
2020/12/07 07:31:03;;;;;;;39.97;26.38;;;;;;;;;;6228675;28;20064;-70
2020/12/07 07:34:04;;;;;;;40.85;25.83;;;;;;;;;;6210766;28;20529;-69
2020/12/07 07:37:05;;;;;;;40.13;26.80;;;;;;;;;;6221101;28;20057;-70
2020/12/07 07:40:10;;;;;;;39.53;26.27;;;;;;;;;;6232749;28;21991;-69
2020/12/07 07:43:13;;;;;;;36.08;24.67;;;;;;;;;;6234617;28;20063;-73
2020/12/07 07:46:14;;;;;;;41.03;26.52;;;;;;;;;;6221891;28;20049;-70
2020/12/07 07:49:27;;;;;;;41.45;27.42;;;;;;;;;;6217132;28;20053;-70
2020/12/07 08:16:55;;;;;;;42.35;27.08;;;;;;;;;;6206557;28;20125;-69
2020/12/07 08:20:06;;;;;;;41.35;27.05;;;;;;;;;;6205761;28;20413;-71
2020/12/07 08:23:08;;;;;;;39.53;25.33;;;;;;;;;;6211825;28;20080;-71
2020/12/07 08:26:18;;;;;;;40.45;26.70;;;;;;;;;;6202924;28;20049;-71
2020/12/07 08:29:20;;;;;;;41.13;27.10;;;;;;;;;;6208069;28;20049;-70
2020/12/07 08:32:22;;;;;;;41.75;27.98;;;;;;;;;;6208935;28;20133;-71
2020/12/07 08:35:24;;;;;;;37.62;24.64;;;;;;;;;;5850997;28;10000487;-69
2020/12/07 08:38:26;;;;;;;37.20;25.92;;;;;;;;;;6209951;28;20179;-71
2020/12/07 08:41:29;;;;;;;38.26;25.56;;;;;;;;;;5862379;28;10001306;-68
2020/12/07 08:44:30;;;;;;;42.17;28.13;;;;;;;;;;5881434;28;10000255;-69
2020/12/07 08:47:31;;;;;;;42.75;28.52;;;;;;;;;;6231820;28;20507;-68
2020/12/07 08:50:32;;;;;;;45.50;28.20;;;;;;;;;;6235639;28;20120;-67
2020/12/07 08:53:34;;;;;;;43.15;28.88;;;;;;;;;;6235451;28;20085;-68
2020/12/07 08:56:35;;;;;;;41.38;28.50;;;;;;;;;;6228931;28;20079;-68
2020/12/07 08:59:37;;;;;;;42.15;27.90;;;;;;;;;;6235143;28;20049;-68
2020/12/07 09:02:38;;;;;;;43.55;27.95;;;;;;;;;;6217629;28;20057;-68
2020/12/07 09:05:39;;;;;;;44.05;27.92;;;;;;;;;;6237144;28;20149;-71
2020/12/07 09:08:40;;;;;;;43.42;27.50;;;;;;;;;;6229741;28;20530;-69
2020/12/07 09:11:41;;;;;;;43.72;28.60;;;;;;;;;;6234793;28;20118;-69
2020/12/07 09:14:43;;;;;;;39.47;27.17;;;;;;;;;;6211967;28;20045;-69
2020/12/07 09:17:44;;;;;;;45.83;29.63;;;;;;;;;;6229222;28;20091;-68
2020/12/07 09:20:45;;;;;;;43.85;28.05;;;;;;;;;;6228597;28;20728;-70
2020/12/07 09:23:46;;;;;;;46.85;30.77;;;;;;;;;;6212528;28;20196;-70
2020/12/07 09:26:47;;;;;;;42.85;28.58;;;;;;;;;;6208681;28;20069;-69
2020/12/07 09:29:49;;;;;;;45.05;28.63;;;;;;;;;;6227158;28;20485;-70
2020/12/07 09:32:50;;;;;;;44.08;29.73;;;;;;;;;;6217780;28;20200;-72
2020/12/07 09:35:52;;;;;;;45.08;29.42;;;;;;;;;;6230631;28;20111;-69
2020/12/07 09:38:53;;;;;;;46.03;30.73;;;;;;;;;;6227969;28;20616;-70
2020/12/07 09:41:54;;;;;;;43.00;28.17;;;;;;;;;;6233023;28;20136;-69
2020/12/07 09:44:55;;;;;;;43.63;27.17;;;;;;;;;;6210490;28;20058;-69
2020/12/07 09:47:57;;;;;;;42.25;25.73;;;;;;;;;;6208152;28;20066;-69
2020/12/07 09:50:58;;;;;;;39.78;23.85;;;;;;;;;;6217412;28;20049;-70
2020/12/07 09:53:59;;;;;;;34.78;24.17;;;;;;;;;;6238646;28;20049;-70
2020/12/07 09:57:01;;;;;;;36.25;21.35;;;;;;;;;;6225562;28;20057;-70
2020/12/07 10:00:04;;;;;;;32.35;21.30;;;;;;;;;;6207550;28;20057;-69
2020/12/07 10:03:05;;;;;;;27.15;19.00;;;;;;;;;;6231755;28;20079;-72
2020/12/07 10:06:07;;;;;;;30.58;19.77;;;;;;;;;;6236693;28;20103;-70
2020/12/07 10:09:08;;;;;;;28.70;18.00;;;;;;;;;;6224046;28;20095;-68
2020/12/07 10:12:09;;;;;;;25.67;16.70;;;;;;;;;;6219856;28;20474;-70
2020/12/07 10:15:29;;;;;;;21.46;15.36;;;;;;;;;;6157579;28;10000368;-69
2020/12/07 10:18:30;;;;;;;22.92;15.38;;;;;;;;;;6212342;28;20433;-69
2020/12/07 10:21:33;;;;;;;20.13;15.52;;;;;;;;;;6215852;28;20516;-69
2020/12/07 10:24:34;;;;;;;22.80;14.27;;;;;;;;;;6216126;28;20057;-70
2020/12/07 10:27:35;;;;;;;19.77;14.15;;;;;;;;;;6213144;28;20451;-69
2020/12/07 10:30:37;;;;;;;21.75;13.77;;;;;;;;;;6210463;28;20104;-70
2020/12/07 10:33:38;;;;;;;22.73;14.80;;;;;;;;;;6214222;28;20065;-71
2020/12/07 10:36:39;;;;;;;21.00;14.90;;;;;;;;;;6216141;28;20133;-71
2020/12/07 10:39:40;;;;;;;22.25;15.43;;;;;;;;;;6215012;28;20762;-69
2020/12/07 10:42:41;;;;;;;21.88;15.52;;;;;;;;;;6228672;28;20041;-73
2020/12/07 10:45:43;;;;;;;21.25;15.95;;;;;;;;;;6215192;28;20105;-70
2020/12/07 10:48:45;;;;;;;27.95;18.42;;;;;;;;;;6213357;28;20066;-68
2020/12/07 10:51:46;;;;;;;28.40;20.80;;;;;;;;;;6228475;28;20195;-68
2020/12/07 10:54:47;;;;;;;28.23;20.63;;;;;;;;;;6204063;28;20057;-68
2020/12/07 10:57:48;;;;;;;34.63;23.95;;;;;;;;;;6213264;28;20049;-69
2020/12/07 11:00:51;;;;;;;28.63;20.63;;;;;;;;;;6209711;28;20543;-68
2020/12/07 11:03:52;;;;;;;34.33;24.90;;;;;;;;;;6205909;28;20049;-68
2020/12/07 11:06:55;;;;;;;41.45;27.00;;;;;;;;;;6224237;28;20132;-67
2020/12/07 11:09:56;;;;;;;37.67;26.80;;;;;;;;;;6238800;28;20042;-67
2020/12/07 11:13:00;;;;;;;39.22;27.92;;;;;;;;;;6239685;28;20053;-69
2020/12/07 11:16:04;;;;;;;39.72;27.52;;;;;;;;;;6225678;28;20041;-68
2020/12/07 11:19:05;;;;;;;42.55;29.40;;;;;;;;;;6211237;28;20045;-68
2020/12/07 11:22:06;;;;;;;38.70;27.80;;;;;;;;;;6214938;28;20081;-69
2020/12/07 11:25:07;;;;;;;43.65;28.75;;;;;;;;;;6208458;28;20745;-67
2020/12/07 11:28:08;;;;;;;43.60;29.48;;;;;;;;;;6210133;28;20131;-70
2020/12/07 11:31:12;;;;;;;44.08;29.40;;;;;;;;;;6221321;28;20045;-70
2020/12/07 11:34:13;;;;;;;42.38;30.15;;;;;;;;;;6215201;28;20198;-69
2020/12/07 11:37:14;;;;;;;46.50;31.85;;;;;;;;;;6210807;28;20058;-68
2020/12/07 11:40:21;;;;;;;51.28;32.92;;;;;;;;;;6209399;28;20119;-69
2020/12/07 11:43:33;;;;;;;47.38;31.48;;;;;;;;;;6209345;28;20126;-71
2020/12/07 11:46:37;;;;;;;45.05;30.05;;;;;;;;;;6209555;28;20053;-69
2020/12/07 11:49:38;;;;;;;48.78;30.25;;;;;;;;;;6223809;28;20050;-70
2020/12/07 11:52:39;;;;;;;46.97;30.80;;;;;;;;;;6234559;28;20119;-68
2020/12/07 11:55:40;;;;;;;43.78;30.33;;;;;;;;;;6209884;28;20397;-69
2020/12/07 11:58:41;;;;;;;43.33;30.80;;;;;;;;;;6206887;28;20042;-69
2020/12/07 12:01:43;;;;;;;41.42;28.38;;;;;;;;;;6208485;28;20046;-69
2020/12/07 12:04:44;;;;;;;40.67;29.42;;;;;;;;;;6205603;28;20095;-70
2020/12/07 12:07:45;;;;;;;39.83;29.30;;;;;;;;;;6210069;28;20054;-69
2020/12/07 12:10:50;;;;;;;37.03;26.00;;;;;;;;;;6219678;28;20127;-70
2020/12/07 12:13:51;;;;;;;;;;;;;;;;;;6250851;28;20139;-69
2020/12/07 12:16:53;;;;;;;;;;;;;;;;;;5885932;28;9999961;-70
2020/12/07 12:19:54;;;;;;;;;;;;;;;;;;6217326;28;21842;-72
2020/12/07 12:22:55;;;;;;;;;;;;;;;;;;6220072;28;19935;-72
2020/12/07 12:25:56;;;;;;;;;;;;;;;;;;6240499;28;19932;-71
2020/12/07 12:28:57;;;;;;;;;;;;;;;;;;6236820;28;19925;-70
2020/12/07 12:31:58;;;;;;;;;;;;;;;;;;6235581;28;19932;-69
2020/12/07 12:34:59;;;;;;;;;;;;;;;;;;6235695;28;20021;-70
2020/12/07 12:38:00;;;;;;;;;;;;;;;;;;6236773;28;19921;-71
2020/12/07 12:41:01;;;;;;;;;;;;;;;;;;6225898;28;19932;-70
2020/12/07 12:44:07;;;;;;;;;;;;;;;;;;6211623;28;19925;-69
2020/12/07 12:47:09;;;;;;;;;;;;;;;;;;6214114;28;20059;-69
2020/12/07 12:50:10;;;;;;;;;;;;;;;;;;6235287;28;20420;-70
2020/12/07 12:53:10;;;;;;;;;;;;;;;;;;6223702;28;19992;-70
2020/12/07 12:56:11;;;;;;;;;;;;;;;;;;6220354;28;19925;-70
2020/12/07 12:59:12;;;;;;;;;;;;;;;;;;6241597;28;19925;-69
2020/12/07 13:02:14;;;;;;;;;;;;;;;;;;6238897;28;19932;-69
2020/12/07 13:05:15;;;;;;;;;;;;;;;;;;5542329;28;10000615;-69
2020/12/07 13:08:16;;;;;;;;;;;;;;;;;;6243558;28;19921;-69
2020/12/07 13:11:17;;;;;;;;;;;;;;;;;;6236849;28;19932;-69
2020/12/07 13:14:18;;;;;;;;;;;;;;;;;;6239171;28;19925;-69
2020/12/07 13:17:21;;;;;;;;;;;;;;;;;;6239109;28;19925;-69
2020/12/07 13:20:28;;;;;;;;;;;;;;;;;;6243003;28;19937;-69
2020/12/07 13:23:34;;;;;;;;;;;;;;;;;;6237282;28;19940;-71
2020/12/07 13:26:43;;;;;;;;;;;;;;;;;;6240463;28;19932;-69
2020/12/07 13:29:44;;;;;;;;;;;;;;;;;;6229004;28;19933;-68
2020/12/07 13:32:46;;;;;;;;;;;;;;;;;;6218301;28;20297;-68
2020/12/07 13:35:47;;;;;;;;;;;;;;;;;;6215619;28;20004;-68
2020/12/07 13:38:48;;;;;;;;;;;;;;;;;;6214671;28;19944;-68
2020/12/07 13:41:49;;;;;;;;;;;;;;;;;;6214088;28;19932;-68
2020/12/07 13:44:50;;;;;;;;;;;;;;;;;;6216024;28;19980;-68
2020/12/07 13:47:51;;;;;;;;;;;;;;;;;;6217107;28;19932;-67
2020/12/07 13:50:52;;;;;;;;;;;;;;;;;;6217375;28;19968;-68
2020/12/07 13:53:53;;;;;;;;;;;;;;;;;;6211624;28;19937;-69
2020/12/07 13:56:54;;;;;;;;;;;;;;;;;;6220541;28;19928;-70
2020/12/07 13:59:55;;;;;;;;;;;;;;;;;;6241407;28;20394;-70
2020/12/07 14:02:57;;;;;;;;;;;;;;;;;;6242235;28;19932;-69
2020/12/07 14:05:57;;;;;;;;;;;;;;;;;;6237057;28;19925;-69
2020/12/07 14:08:58;;;;;;;;;;;;;;;;;;6235168;28;19996;-71
2020/12/07 14:12:01;;;;;;;;;;;;;;;;;;6237340;28;19921;-68
2020/12/07 14:15:02;;;;;;;;;;;;;;;;;;6239737;28;20359;-69
2020/12/07 14:18:08;;;;;;;;;;;;;;;;;;6237444;28;20381;-68
2020/12/07 14:21:15;;;;;;;;;;;;;;;;;;6222248;28;19922;-68
2020/12/07 14:24:19;;;;;;;;;;;;;;;;;;6233334;28;19925;-68
2020/12/07 14:27:53;;;;;;;;;;;;;;;;;;6234304;28;20067;-69
2020/12/07 14:40:48;;;;;;;;;;;;;;;;;;6231994;28;20233;-71
2020/12/07 14:43:49;;;;;;;;;;;;;;;;;;5538548;28;10000777;-70
2020/12/07 14:46:51;;;;;;;;;;;;;;;;;;6236271;28;19932;-69
2020/12/07 14:49:58;;;;;;;;;;;;;;;;;;6241542;28;19927;-69
2020/12/07 14:53:03;;;;;;;;;;;;;;;;;;6237802;28;20360;-70
2020/12/07 14:56:09;;;;;;;;;;;;;;;;;;6237014;28;19921;-70
2020/12/07 15:05:45;;;;;;;;;;;;;;;;;;6232573;28;19931;-74
2020/12/07 15:09:26;;;;;;;;;;;;;;;;;;6217164;28;20421;-71
2020/12/07 15:13:49;;;;;;;;;;;;;;;;;;6232875;28;19932;-70
2020/12/07 15:16:13;;;;;;;;;;;;;;;;;;6232183;28;19967;-70
2020/12/07 15:19:14;;;;;;;;;;;;;;;;;;6228934;28;20020;-69
2020/12/07 15:22:16;;;;;;;;;;;;;;;;;;6210849;28;19929;-69
2020/12/07 15:25:17;;;;;;;;;;;;;;;;;;6222792;28;19925;-69
2020/12/07 15:28:18;;;;;;;;;;;;;;;;;;6219364;28;19936;-70
2020/12/07 15:31:20;;;;;;;;;;;;;;;;;;6213782;28;20332;-68
2020/12/07 15:34:21;;;;;;;;;;;;;;;;;;6228193;28;19925;-70
2020/12/07 15:37:23;;;;;;;;;;;;;;;;;;6209056;28;20404;-70
2020/12/07 15:40:24;;;;;;;;;;;;;;;;;;6208069;28;20401;-70
2020/12/07 15:43:25;;;;;;;;;;;;;;;;;;6221799;28;19929;-69
2020/12/07 15:46:30;;;;;;;;;;;;;;;;;;6235910;28;19931;-70
2020/12/07 15:49:30;;;;;;;;;;;;;;;;;;6225816;28;19925;-69
2020/12/07 15:52:32;;;;;;;;;;;;;;;;;;6226858;28;19928;-69
2020/12/07 15:55:33;;;;;;;;;;;;;;;;;;6212654;28;19998;-69
2020/12/07 15:58:34;;;;;;;;;;;;;;;;;;6216437;28;19931;-69
2020/12/07 16:01:35;;;;;;;;;;;;;;;;;;6233777;28;19929;-69
2020/12/07 16:04:36;;;;;;;;;;;;;;;;;;6236983;28;19922;-70
2020/12/07 16:07:37;;;;;;;;;;;;;;;;;;5888649;28;10000240;-68
2020/12/07 16:10:38;;;;;;;;;;;;;;;;;;6239493;28;20019;-70
2020/12/07 16:13:39;;;;;;;;;;;;;;;;;;6237020;28;19932;-70
2020/12/07 16:16:40;;;;;;;;;;;;;;;;;;6236362;28;19921;-69
2020/12/07 16:19:41;;;;;;;;;;;;;;;;;;6234298;28;19921;-69
2020/12/07 16:22:43;;;;;;;;;;;;;;;;;;6235904;28;19925;-71
2020/12/07 16:25:44;;;;;;;;;;;;;;;;;;6223151;28;19944;-71
2020/12/07 16:28:45;;;;;;;;;;;;;;;;;;6208761;28;19926;-73
2020/12/07 16:31:46;;;;;;;;;;;;;;;;;;6218723;28;20455;-77
2020/12/07 16:34:47;;;;;;;;;;;;;;;;;;6240884;28;19921;-76
2020/12/07 16:37:49;;;;;;;;;;;;;;;;;;6240493;28;19921;-75
2020/12/07 16:40:50;;;;;;;;;;;;;;;;;;6238545;28;19932;-74
2020/12/07 16:43:51;;;;;;;;;;;;;;;;;;6239844;28;19932;-75
2020/12/07 16:46:56;;;;;;;;;;;;;;;;;;6236076;28;20296;-74
2020/12/07 16:49:57;;;;;;;;;;;;;;;;;;6237341;28;19932;-75
2020/12/07 16:52:58;;;;;;;;;;;;;;;;;;6235288;28;19925;-73
2020/12/07 16:56:04;;;;;;;;;;;;;;;;;;6230752;28;19929;-73
2020/12/07 16:59:05;;;;;;;;;;;;;;;;;;6226147;28;20043;-72
2020/12/07 17:02:06;;;;;;;;;;;;;;;;;;6231157;28;19952;-73
2020/12/07 17:05:07;;;;;;;;;;;;;;;;;;6232239;28;19936;-75
2020/12/07 17:08:09;;;;;;;;;;;;;;;;;;6234813;28;19960;-74
2020/12/07 17:11:09;;;;;;;;;;;;;;;;;;6228710;28;20095;-75
2020/12/07 17:14:11;;;;;;;;;;;;;;;;;;6229956;28;19937;-73
2020/12/07 17:17:12;;;;;;;;;;;;;;;;;;6235436;28;20424;-77
2020/12/07 17:20:13;;;;;;;;;;;;;;;;;;6225792;28;20008;-73
2020/12/07 17:23:14;;;;;;;;;;;;;;;;;;6234463;28;20082;-75
2020/12/07 17:26:15;;;;;;;;;;;;;;;;;;6237985;28;19929;-75
2020/12/07 17:29:16;;;;;;;;;;;;;;;;;;6232563;28;20399;-76
2020/12/07 17:32:17;;;;;;;;;;;;;;;;;;6228531;28;19925;-76
2020/12/07 17:35:18;;;;;;;;;;;;;;;;;;6221685;28;20372;-75
2020/12/07 17:38:20;;;;;;;;;;;;;;;;;;6204350;28;19932;-74
2020/12/07 17:41:20;;;;;;;;;;;;;;;;;;6217059;28;19957;-72
2020/12/07 17:44:21;;;;;;;;;;;;;;;;;;6237759;28;20380;-69
2020/12/07 17:47:22;;;;;;;;;;;;;;;;;;6228476;28;19925;-68
2020/12/07 17:50:23;;;;;;;;;;;;;;;;;;6214829;28;19925;-68
2020/12/07 17:53:25;;;;;;;;;;;;;;;;;;6224153;28;19925;-71
2020/12/07 17:56:25;;;;;;;;;;;;;;;;;;6233117;28;19958;-71
2020/12/07 17:59:26;;;;;;;;;;;;;;;;;;6232679;28;20373;-68
2020/12/07 18:02:27;;;;;;;;;;;;;;;;;;6229453;28;19925;-68
2020/12/07 18:05:28;;;;;;;;;;;;;;;;;;6224360;28;19925;-69
2020/12/07 18:08:30;;;;;;;;;;;;;;;;;;6230944;28;19932;-68
2020/12/07 18:11:31;;;;;;;;;;;;;;;;;;6235403;28;19994;-71
2020/12/07 18:14:32;;;;;;;;;;;;;;;;;;6169638;28;122241;-70
2020/12/07 18:17:32;;;;;;;;;;;;;;;;;;6191128;28;19930;-68
2020/12/07 18:20:33;;;;;;;;;;;;;;;;;;6189817;28;19933;-69
2020/12/07 18:23:35;;;;;;;;;;;;;;;;;;6187394;28;19929;-68
2020/12/07 18:26:36;;;;;;;;;;;;;;;;;;6164328;28;19996;-70
2020/12/07 18:29:37;;;;;;;;;;;;;;;;;;6175703;28;19978;-67
2020/12/07 18:32:37;;;;;;;;;;;;;;;;;;6181982;28;19929;-70
2020/12/07 18:35:38;;;;;;;;;;;;;;;;;;6190298;28;19932;-72
2020/12/07 18:38:40;;;;;;;;;;;;;;;;;;6187148;28;19922;-68
2020/12/07 18:41:41;;;;;;;;;;;;;;;;;;6186482;28;19926;-68
2020/12/07 18:44:42;;;;;;;;;;;;;;;;;;6187770;28;19934;-68
2020/12/07 18:47:42;;;;;;;;;;;;;;;;;;6191307;28;19926;-70
2020/12/07 18:50:43;;;;;;;;;;;;;;;;;;6189780;28;19922;-71
2020/12/07 18:53:45;;;;;;;;;;;;;;;;;;6197350;28;19933;-73
2020/12/07 18:56:46;;;;;;;;;;;;;;;;;;6208524;28;20000;-71
2020/12/07 18:59:47;;;;;;;;;;;;;;;;;;6208239;28;19926;-70
2020/12/07 19:02:48;;;;;;;;;;;;;;;;;;6212366;28;19925;-71
2020/12/07 19:05:48;;;;;;;;;;;;;;;;;;6207476;28;20742;-71
2020/12/07 19:08:50;;;;;;;;;;;;;;;;;;6209973;28;19925;-70
2020/12/07 19:11:51;;;;;;;;;;;;;;;;;;6208024;28;19971;-70
2020/12/07 19:14:52;;;;;;;;;;;;;;;;;;6213914;28;19921;-71
2020/12/07 19:17:53;;;;;;;;;;;;;;;;;;6207153;28;19925;-73
2020/12/07 19:20:53;;;;;;;;;;;;;;;;;;6214056;28;19929;-71